createdAt,value
2023-05-02T00:00:03.348Z,68.6384
2023-05-02T00:01:07.374Z,71.8262
2023-05-02T00:02:11.439Z,69.9016
2023-05-02T00:03:15.408Z,57.1768
2023-05-02T00:04:19.383Z,58.2918
2023-05-02T00:05:23.550Z,64.1693
2023-05-02T00:06:27.504Z,68.8050
2023-05-02T00:07:31.419Z,72.0415
2023-05-02T00:08:35.330Z,70.4936
2023-05-02T00:09:39.240Z,58.8647
2023-05-02T00:10:43.140Z,60.6221
2023-05-02T00:11:47.039Z,65.9734
2023-05-02T00:12:50.938Z,70.1030
2023-05-02T00:13:54.824Z,72.9291
2023-05-02T00:14:59.490Z,69.9250
2023-05-02T00:16:03.380Z,56.1657
2023-05-02T00:17:07.338Z,56.8035
2023-05-02T00:18:11.252Z,62.9290
2023-05-02T00:19:15.150Z,67.9494
2023-05-02T00:20:19.131Z,71.5499
2023-05-02T00:21:23.034Z,70.8673
2023-05-02T00:22:26.921Z,57.5639
2023-05-02T00:23:30.814Z,55.9754
2023-05-02T00:24:34.700Z,61.8751
2023-05-02T00:25:38.596Z,66.9575
2023-05-02T00:26:42.475Z,70.7234
2023-05-02T00:27:46.378Z,71.3349
2023-05-02T00:28:50.272Z,58.6483
2023-05-02T00:29:50.732Z,53.2963
2023-05-02T00:30:54.647Z,59.0092
2023-05-02T00:31:58.556Z,64.5810
2023-05-02T00:33:02.493Z,68.9999
2023-05-02T00:34:06.358Z,71.6754
2023-05-02T00:35:10.257Z,62.9136
2023-05-02T00:36:14.152Z,55.0553
2023-05-02T00:37:18.060Z,60.4044
2023-05-02T00:38:21.934Z,65.9534
2023-05-02T00:39:25.822Z,69.9936
2023-05-02T00:40:29.810Z,72.5059
2023-05-02T00:41:33.692Z,65.4505
2023-05-02T00:42:37.606Z,62.7184
2023-05-02T00:43:41.510Z,67.4095
2023-05-02T00:44:45.407Z,71.0906
2023-05-02T00:45:49.325Z,73.4574
2023-05-02T00:46:53.386Z,73.4470
2023-05-02T00:47:57.385Z,59.9504
2023-05-02T00:49:01.319Z,51.5367
2023-05-02T00:50:05.272Z,57.1227
2023-05-02T00:51:09.165Z,63.3923
2023-05-02T00:52:13.047Z,68.2951
2023-05-02T00:53:16.964Z,71.8326
2023-05-02T00:54:20.873Z,65.9702
2023-05-02T00:55:24.791Z,60.2413
2023-05-02T00:56:28.692Z,64.7785
2023-05-02T00:57:32.601Z,69.1585
2023-05-02T00:58:36.512Z,72.2231
2023-05-02T00:59:40.444Z,73.7269
2023-05-02T01:00:44.330Z,62.6730
2023-05-02T01:01:48.286Z,50.8640
2023-05-02T01:02:52.319Z,54.7458
2023-05-02T01:03:56.350Z,61.3457
2023-05-02T01:05:00.254Z,66.6875
2023-05-02T01:06:04.254Z,70.6624
2023-05-02T01:07:08.102Z,68.6108
2023-05-02T01:08:12.127Z,60.9283
2023-05-02T01:09:16.002Z,64.8777
2023-05-02T01:10:19.899Z,69.2870
2023-05-02T01:11:23.812Z,72.3031
2023-05-02T01:12:27.708Z,74.3243
2023-05-02T01:13:31.626Z,65.9635
2023-05-02T01:14:35.520Z,53.1309
2023-05-02T01:15:39.453Z,55.9921
2023-05-02T01:16:43.408Z,62.3089
2023-05-02T01:17:47.338Z,67.4406
2023-05-02T01:18:51.219Z,71.2755
2023-05-02T01:19:55.107Z,69.3777
2023-05-02T01:20:59.001Z,56.0311
2023-05-02T01:22:02.958Z,56.3202
2023-05-02T01:23:07.206Z,62.4029
2023-05-02T01:24:11.103Z,67.4454
2023-05-02T01:25:15.010Z,71.0892
2023-05-02T01:26:18.913Z,70.6728
2023-05-02T01:27:22.831Z,57.9988
2023-05-02T01:28:26.747Z,57.4481
2023-05-02T01:29:30.658Z,63.2490
2023-05-02T01:30:34.568Z,68.0863
2023-05-02T01:31:38.593Z,71.4817
2023-05-02T01:32:42.783Z,71.0165
2023-05-02T01:33:46.667Z,57.2830
2023-05-02T01:34:50.565Z,52.3737
2023-05-02T01:35:54.525Z,58.5431
2023-05-02T01:36:58.416Z,64.3434
2023-05-02T01:38:02.333Z,68.8565
2023-05-02T01:39:06.212Z,71.5161
2023-05-02T01:40:10.133Z,62.1663
2023-05-02T01:41:14.023Z,55.5603
2023-05-02T01:42:17.942Z,60.8916
2023-05-02T01:43:21.856Z,66.1549
2023-05-02T01:44:25.729Z,70.0735
2023-05-02T01:45:29.622Z,72.3217
2023-05-02T01:46:33.577Z,63.0748
2023-05-02T01:47:37.512Z,53.8693
2023-05-02T01:48:41.416Z,58.8296
2023-05-02T01:49:45.316Z,64.6396
2023-05-02T01:50:49.239Z,69.1039
2023-05-02T01:51:53.162Z,72.1258
2023-05-02T01:52:57.093Z,65.6046
2023-05-02T01:54:00.968Z,54.5134
2023-05-02T01:55:04.866Z,58.3099
2023-05-02T01:56:08.748Z,64.1372
2023-05-02T01:57:12.650Z,68.6885
2023-05-02T01:58:16.771Z,71.8568
2023-05-02T01:59:20.649Z,67.3672
2023-05-02T02:00:24.783Z,55.3479
2023-05-02T02:01:28.699Z,58.2282
2023-05-02T02:02:32.586Z,64.0864
2023-05-02T02:03:36.578Z,68.6866
2023-05-02T02:04:40.628Z,71.9186
2023-05-02T02:05:41.605Z,69.0300
2023-05-02T02:06:45.624Z,58.4541
2023-05-02T02:07:49.896Z,61.5859
2023-05-02T02:08:53.782Z,66.8861
2023-05-02T02:09:57.805Z,70.6912
2023-05-02T02:11:01.795Z,73.2349
2023-05-02T02:12:05.712Z,68.3570
2023-05-02T02:13:09.624Z,55.9600
2023-05-02T02:14:13.536Z,58.6121
2023-05-02T02:15:17.444Z,64.4212
2023-05-02T02:16:21.416Z,69.0252
2023-05-02T02:17:25.676Z,72.2928
2023-05-02T02:18:29.851Z,69.0869
2023-05-02T02:19:33.746Z,55.8176
2023-05-02T02:20:37.644Z,56.9594
2023-05-02T02:21:41.519Z,63.1398
2023-05-02T02:22:45.646Z,68.0776
2023-05-02T02:23:49.563Z,71.6124
2023-05-02T02:24:54.405Z,70.5581
2023-05-02T02:25:58.495Z,59.9616
2023-05-02T02:27:02.388Z,62.3608
2023-05-02T02:28:06.280Z,67.4060
2023-05-02T02:29:10.184Z,71.0947
2023-05-02T02:30:14.119Z,73.5641
2023-05-02T02:31:18.093Z,69.0590
2023-05-02T02:32:21.956Z,55.2514
2023-05-02T02:33:25.840Z,56.4371
2023-05-02T02:34:29.726Z,62.5587
2023-05-02T02:35:33.615Z,67.5514
2023-05-02T02:36:37.521Z,71.3069
2023-05-02T02:37:41.404Z,70.6466
2023-05-02T02:38:45.291Z,58.1385
2023-05-02T02:39:49.174Z,58.6453
2023-05-02T02:40:53.051Z,64.4953
2023-05-02T02:41:56.937Z,69.1081
2023-05-02T02:43:00.848Z,72.2815
2023-05-02T02:44:04.726Z,71.1505
2023-05-02T02:45:09.570Z,59.7796
2023-05-02T02:46:13.489Z,61.6510
2023-05-02T02:47:17.350Z,66.8622
2023-05-02T02:48:21.233Z,70.8061
2023-05-02T02:49:25.147Z,73.4262
2023-05-02T02:50:29.025Z,69.9860
2023-05-02T02:51:32.961Z,55.9846
2023-05-02T02:52:37.095Z,56.1844
2023-05-02T02:53:41.001Z,62.3430
2023-05-02T02:54:44.928Z,67.4580
2023-05-02T02:55:49.593Z,71.2777
2023-05-02T02:56:53.485Z,71.0585
2023-05-02T02:57:57.378Z,57.4632
2023-05-02T02:59:01.272Z,53.7994
2023-05-02T03:00:05.390Z,59.9793
2023-05-02T03:01:09.300Z,65.4314
2023-05-02T03:02:13.221Z,69.6993
2023-05-02T03:03:17.169Z,71.7872
2023-05-02T03:04:21.155Z,61.2576
2023-05-02T03:05:25.667Z,55.9625
2023-05-02T03:06:29.627Z,61.4768
2023-05-02T03:07:33.626Z,66.6323
2023-05-02T03:08:37.544Z,70.4517
2023-05-02T03:09:41.454Z,72.3191
2023-05-02T03:10:45.354Z,61.7386
2023-05-02T03:11:49.267Z,52.5889
2023-05-02T03:12:53.188Z,57.5633
2023-05-02T03:13:57.097Z,63.4721
2023-05-02T03:15:01.259Z,68.2194
2023-05-02T03:16:05.181Z,71.5773
2023-05-02T03:17:09.172Z,65.8096
2023-05-02T03:18:13.083Z,54.6672
2023-05-02T03:19:17.279Z,58.5559
2023-05-02T03:20:21.167Z,64.2870
2023-05-02T03:21:25.069Z,68.7523
2023-05-02T03:22:28.954Z,71.8901
2023-05-02T03:23:32.835Z,67.9828
2023-05-02T03:24:36.710Z,62.3175
2023-05-02T03:25:40.614Z,66.7423
2023-05-02T03:26:44.514Z,70.6652
2023-05-02T03:27:48.405Z,73.2375
2023-05-02T03:28:52.396Z,74.5322
2023-05-02T03:29:56.300Z,63.7307
2023-05-02T03:31:00.326Z,51.1008
2023-05-02T03:32:04.407Z,54.1686
2023-05-02T03:33:08.417Z,60.8509
2023-05-02T03:34:12.305Z,66.1730
2023-05-02T03:35:16.196Z,70.3582
2023-05-02T03:36:20.090Z,69.3389
2023-05-02T03:37:24.003Z,56.5977
2023-05-02T03:38:27.913Z,57.2850
2023-05-02T03:39:31.824Z,63.1454
2023-05-02T03:40:35.713Z,68.0016
2023-05-02T03:41:39.595Z,71.4204
2023-05-02T03:42:43.493Z,70.5689
2023-05-02T03:43:47.376Z,58.3110
2023-05-02T03:44:51.276Z,59.2682
2023-05-02T03:45:55.154Z,64.7705
2023-05-02T03:46:59.125Z,69.2255
2023-05-02T03:48:03.135Z,72.3162
2023-05-02T03:49:07.003Z,70.6808
2023-05-02T03:50:07.411Z,56.5603
2023-05-02T03:51:11.308Z,51.9309
2023-05-02T03:52:15.198Z,58.1042
2023-05-02T03:53:19.094Z,63.9965
2023-05-02T03:54:22.984Z,68.6522
2023-05-02T03:55:26.878Z,71.5806
2023-05-02T03:56:30.749Z,62.6452
2023-05-02T03:57:34.690Z,53.6872
2023-05-02T03:58:38.546Z,58.5500
2023-05-02T03:59:42.419Z,64.3202
2023-05-02T04:00:46.316Z,68.8258
2023-05-02T04:01:50.318Z,71.8307
2023-05-02T04:02:54.548Z,65.3122
2023-05-02T04:03:58.512Z,53.3851
2023-05-02T04:05:02.391Z,56.6693
2023-05-02T04:06:06.285Z,62.6238
2023-05-02T04:07:10.170Z,67.5516
2023-05-02T04:08:14.044Z,71.0576
2023-05-02T04:09:17.929Z,68.1668
2023-05-02T04:10:21.824Z,54.0626
2023-05-02T04:11:25.790Z,52.7967
2023-05-02T04:12:29.632Z,59.3311
2023-05-02T04:13:33.523Z,64.9371
2023-05-02T04:14:37.442Z,69.2327
2023-05-02T04:15:41.351Z,70.8668
2023-05-02T04:16:45.302Z,60.7656
2023-05-02T04:17:49.264Z,60.5992
2023-05-02T04:18:53.146Z,65.8796
2023-05-02T04:19:57.037Z,69.9250
2023-05-02T04:21:00.941Z,72.5977
2023-05-02T04:22:04.869Z,71.4116
2023-05-02T04:23:04.965Z,57.8321
2023-05-02T04:24:08.872Z,55.3346
2023-05-02T04:25:12.780Z,61.4827
2023-05-02T04:26:16.689Z,66.8159
2023-05-02T04:27:20.586Z,70.8363
2023-05-02T04:28:24.531Z,72.3710
2023-05-02T04:29:28.421Z,61.0437
2023-05-02T04:30:32.325Z,57.0640
2023-05-02T04:31:36.276Z,62.6458
2023-05-02T04:32:40.277Z,67.6505
2023-05-02T04:33:44.185Z,71.2615
2023-05-02T04:34:48.051Z,72.5275
2023-05-02T04:35:52.213Z,60.6840
2023-05-02T04:36:56.117Z,52.8387
2023-05-02T04:38:00.256Z,58.5206
2023-05-02T04:39:04.173Z,64.2824
2023-05-02T04:40:08.109Z,68.8528
2023-05-02T04:41:12.007Z,71.9655
2023-05-02T04:42:15.914Z,64.6770
2023-05-02T04:43:19.822Z,53.5692
2023-05-02T04:44:23.735Z,57.6047
2023-05-02T04:45:27.873Z,63.5732
2023-05-02T04:46:31.886Z,68.3041
2023-05-02T04:47:35.824Z,71.6135
2023-05-02T04:48:39.723Z,67.4417
2023-05-02T04:49:43.621Z,57.5143
2023-05-02T04:50:47.509Z,61.5506
2023-05-02T04:51:51.407Z,66.8855
2023-05-02T04:52:55.317Z,70.7108
2023-05-02T04:53:59.235Z,73.1882
2023-05-02T04:55:03.133Z,67.1071
2023-05-02T04:56:07.013Z,58.0241
2023-05-02T04:57:11.040Z,62.4102
2023-05-02T04:58:14.964Z,67.5409
2023-05-02T04:59:18.866Z,71.2551
2023-05-02T05:00:19.268Z,73.6116
2023-05-02T05:01:23.180Z,66.7922
2023-05-02T05:02:27.302Z,54.2045
2023-05-02T05:03:31.338Z,57.1473
2023-05-02T05:04:35.232Z,63.1670
2023-05-02T05:05:39.254Z,68.0887
2023-05-02T05:06:43.259Z,71.6954
2023-05-02T05:07:47.125Z,69.2354
2023-05-02T05:08:51.011Z,55.3363
2023-05-02T05:09:54.940Z,54.7222
2023-05-02T05:10:59.125Z,61.0150
2023-05-02T05:12:03.037Z,66.3457
2023-05-02T05:13:07.183Z,70.3619
2023-05-02T05:14:11.111Z,70.9352
2023-05-02T05:15:15.008Z,58.1554
2023-05-02T05:16:18.981Z,53.4408
2023-05-02T05:17:22.920Z,59.4903
2023-05-02T05:18:26.793Z,65.1629
2023-05-02T05:19:30.681Z,69.4255
2023-05-02T05:20:34.562Z,70.9971
2023-05-02T05:23:09.552Z,49.8739
2023-05-02T05:24:11.308Z,41.8154
2023-05-02T05:25:13.017Z,37.3254
2023-05-02T05:26:14.720Z,43.4170
2023-05-02T05:27:16.481Z,51.1080
2023-05-02T05:28:18.187Z,57.4506
2023-05-02T05:29:19.900Z,62.9125
2023-05-02T05:30:21.627Z,65.4886
2023-05-02T05:31:23.348Z,60.1830
2023-05-02T05:32:25.109Z,63.3309
2023-05-02T05:33:26.907Z,67.7708
2023-05-02T05:34:28.530Z,71.2947
2023-05-02T05:35:30.248Z,74.1806
2023-05-02T05:36:31.937Z,70.6501
2023-05-02T05:37:33.653Z,56.8989
2023-05-02T05:38:35.377Z,56.7619
2023-05-02T05:39:37.111Z,62.4269
2023-05-02T05:40:38.820Z,67.2503
2023-05-02T05:41:40.542Z,71.0231
2023-05-02T05:42:42.261Z,72.3510
2023-05-02T05:43:43.970Z,61.1835
2023-05-02T05:44:45.736Z,57.9596
2023-05-02T05:45:47.440Z,63.1578
2023-05-02T05:46:50.024Z,67.8836
2023-05-02T05:47:50.921Z,71.3312
2023-05-02T05:48:52.603Z,73.2925
2023-05-02T05:49:54.321Z,63.4093
2023-05-02T05:50:56.031Z,55.1346
2023-05-02T05:51:57.762Z,59.7397
2023-05-02T05:52:59.482Z,65.0506
2023-05-02T05:54:01.191Z,69.3092
2023-05-02T05:55:02.885Z,72.3656
2023-05-02T05:56:04.609Z,67.7296
2023-05-02T05:57:06.339Z,54.8395
2023-05-02T05:58:08.060Z,55.9667
2023-05-02T05:59:09.784Z,61.6967
2023-05-02T06:00:11.503Z,66.6410
2023-05-02T06:01:13.215Z,70.3680
2023-05-02T06:02:15.001Z,71.1266
2023-05-02T06:03:16.705Z,58.8705
2023-05-02T06:04:18.367Z,51.3359
2023-05-02T06:05:20.105Z,56.4900
2023-05-02T06:06:21.894Z,62.2259
2023-05-02T06:07:23.533Z,66.9831
2023-05-02T06:08:25.264Z,70.5135
2023-05-02T06:09:26.979Z,67.2355
2023-05-02T06:10:28.787Z,53.6817
2023-05-02T06:11:30.415Z,51.8218
2023-05-02T06:12:32.139Z,57.8494
2023-05-02T06:13:33.854Z,63.2955
2023-05-02T06:14:35.586Z,67.7519
2023-05-02T06:15:37.365Z,70.5206
2023-05-02T06:16:39.128Z,62.1506
2023-05-02T06:17:40.747Z,51.9404
2023-05-02T06:18:42.428Z,55.5620
2023-05-02T06:19:44.151Z,61.3468
2023-05-02T06:20:45.892Z,66.1130
2023-05-02T06:21:47.619Z,69.7469
2023-05-02T06:22:49.338Z,68.8712
2023-05-02T06:23:51.053Z,56.7965
2023-05-02T06:24:52.768Z,56.4598
2023-05-02T06:25:54.494Z,62.1461
2023-05-02T06:26:56.231Z,66.9314
2023-05-02T06:27:57.939Z,70.3447
2023-05-02T06:28:59.664Z,71.5804
2023-05-02T06:30:01.623Z,61.7158
2023-05-02T06:31:03.190Z,60.3493
2023-05-02T06:32:04.874Z,63.6375
2023-05-02T06:33:06.584Z,68.3178
2023-05-02T06:34:08.246Z,71.2087
2023-05-02T06:35:09.992Z,72.2158
2023-05-02T06:36:11.661Z,60.8846
2023-05-02T06:37:13.391Z,50.9264
2023-05-02T06:38:15.106Z,54.9084
2023-05-02T06:39:16.827Z,60.8935
2023-05-02T06:40:18.537Z,65.8892
2023-05-02T06:41:20.299Z,69.7630
2023-05-02T06:42:21.986Z,68.9319
2023-05-02T06:43:23.710Z,55.6822
2023-05-02T06:44:25.469Z,50.9663
2023-05-02T06:45:27.165Z,56.7580
2023-05-02T06:46:28.895Z,62.4096
2023-05-02T06:47:30.701Z,67.0183
2023-05-02T06:48:32.319Z,70.3349
2023-05-02T06:49:34.032Z,64.7330
2023-05-02T06:50:35.775Z,55.0609
2023-05-02T06:51:37.503Z,58.7761
2023-05-02T06:52:39.205Z,64.1657
2023-05-02T06:53:40.970Z,68.3564
2023-05-02T06:54:42.659Z,71.2804
2023-05-02T06:55:44.379Z,68.6961
2023-05-02T06:56:46.111Z,55.8066
2023-05-02T06:57:47.822Z,55.5546
2023-05-02T06:58:49.556Z,61.2995
2023-05-02T06:59:51.308Z,66.2479
2023-05-02T07:00:53.005Z,69.9816
2023-05-02T07:01:54.717Z,71.3760
2023-05-02T07:02:56.487Z,60.6483
2023-05-02T07:03:58.196Z,55.9892
2023-05-02T07:04:59.883Z,61.2341
2023-05-02T07:06:01.684Z,66.2285
2023-05-02T07:07:03.333Z,69.9867
2023-05-02T07:08:05.053Z,72.3160
2023-05-02T07:09:06.784Z,64.5662
2023-05-02T07:10:08.505Z,56.7335
2023-05-02T07:11:10.241Z,61.1972
2023-05-02T07:12:11.935Z,66.2560
2023-05-02T07:13:13.653Z,70.0796
2023-05-02T07:14:15.378Z,72.6615
2023-05-02T07:15:17.065Z,67.4450
2023-05-02T07:16:18.846Z,55.2044
2023-05-02T07:17:20.540Z,57.3477
2023-05-02T07:18:22.236Z,62.9273
2023-05-02T07:19:23.954Z,67.5696
2023-05-02T07:20:25.743Z,70.9912
2023-05-02T07:21:27.419Z,61.4126
2023-05-02T07:22:29.115Z,52.1478
2023-05-02T07:23:30.847Z,51.9354
2023-05-02T07:24:32.568Z,51.9531
2023-05-02T07:25:34.279Z,51.9668
2023-05-02T07:26:35.996Z,52.0059
2023-05-02T07:27:37.742Z,52.0116
2023-05-02T07:28:39.453Z,52.0422
2023-05-02T07:29:41.183Z,52.1073
2023-05-02T07:30:42.891Z,52.1226
2023-05-02T07:31:44.668Z,52.1103
2023-05-02T07:32:46.393Z,52.1032
2023-05-02T07:33:48.065Z,52.0202
2023-05-02T07:34:49.758Z,51.9742
2023-05-02T07:35:51.485Z,51.9685
2023-05-02T07:36:53.203Z,51.9672
2023-05-02T07:37:54.997Z,51.9154
2023-05-02T07:38:57.448Z,51.9623
2023-05-02T07:40:01.598Z,52.0081
2023-05-02T07:41:05.779Z,52.0123
2023-05-02T07:42:09.674Z,52.0514
2023-05-02T07:43:13.563Z,52.0255
2023-05-02T07:44:17.438Z,52.0152
2023-05-02T07:45:21.492Z,52.0508
2023-05-02T07:46:25.554Z,52.0335
2023-05-02T07:47:33.434Z,52.0067
2023-05-02T07:48:32.029Z,52.0394
2023-05-02T07:49:35.907Z,52.0715
2023-05-02T07:50:39.823Z,52.1052
2023-05-02T07:51:44.581Z,52.0790
2023-05-02T07:52:48.875Z,52.0405
2023-05-02T07:53:52.278Z,51.9495
2023-05-02T07:54:56.181Z,51.9884
2023-05-02T07:56:00.134Z,51.9813
2023-05-02T07:57:04.148Z,51.9500
2023-05-02T07:58:08.041Z,51.9687
2023-05-02T07:59:12.176Z,51.9314
2023-05-02T08:00:16.135Z,51.8728
2023-05-02T08:01:20.027Z,51.8729
2023-05-02T08:02:25.852Z,51.8185
2023-05-02T08:03:24.800Z,51.8987
2023-05-02T08:04:30.610Z,51.8490
2023-05-02T08:05:29.297Z,51.7995
2023-05-02T08:06:33.252Z,51.8101
2023-05-02T08:07:37.390Z,51.7461
2023-05-02T08:08:41.330Z,51.7102
2023-05-02T08:09:45.243Z,51.6612
2023-05-02T08:10:49.281Z,51.7283
2023-05-02T08:11:53.178Z,51.6519
2023-05-02T08:12:59.384Z,51.9710
2023-05-02T08:13:58.490Z,51.8527
2023-05-02T08:14:58.916Z,48.0738
2023-05-02T08:16:02.914Z,39.8910
2023-05-02T08:17:06.790Z,36.4150
2023-05-02T08:18:10.804Z,41.5991
2023-05-02T08:19:14.726Z,50.1347
2023-05-02T08:20:18.596Z,56.9961
2023-05-02T08:21:22.517Z,62.6548
2023-05-02T08:22:26.390Z,66.1590
2023-05-02T08:23:30.308Z,63.0957
2023-05-02T08:24:34.210Z,66.8799
2023-05-02T08:25:38.156Z,71.1907
2023-05-02T08:26:42.073Z,74.6615
2023-05-02T08:27:45.987Z,77.2923
2023-05-02T08:28:49.890Z,69.9358
2023-05-02T08:29:53.839Z,55.4215
2023-05-02T08:30:57.724Z,53.9789
2023-05-02T08:32:01.728Z,60.0671
2023-05-02T08:33:05.706Z,65.7766
2023-05-02T08:34:09.614Z,70.4828
2023-05-02T08:35:13.493Z,73.0947
2023-05-02T08:36:17.378Z,62.6539
2023-05-02T08:37:21.301Z,56.6537
2023-05-02T08:38:25.186Z,61.8524
2023-05-02T08:39:29.082Z,67.2114
2023-05-02T08:40:41.571Z,71.6686
2023-05-02T08:41:37.461Z,74.8136
2023-05-02T08:42:41.375Z,65.8153
2023-05-02T08:43:45.406Z,55.1629
2023-05-02T08:44:49.298Z,58.6469
2023-05-02T08:45:53.202Z,64.4125
2023-05-02T08:46:57.160Z,69.4149
2023-05-02T08:48:01.146Z,73.3874
2023-05-02T08:49:05.015Z,70.1015
2023-05-02T08:50:09.188Z,56.6954
2023-05-02T08:51:13.087Z,56.7010
2023-05-02T08:52:16.995Z,62.4870
2023-05-02T08:53:20.927Z,67.9073
2023-05-02T08:54:25.025Z,72.1659
2023-05-02T08:55:28.946Z,72.9398
2023-05-02T08:56:32.868Z,61.0128
2023-05-02T08:57:37.097Z,59.8559
2023-05-02T08:58:41.046Z,65.2534
2023-05-02T08:59:44.910Z,70.0120
2023-05-02T09:00:48.831Z,73.8332
2023-05-02T09:01:52.723Z,74.1157
2023-05-02T09:02:56.636Z,60.7912
2023-05-02T09:04:00.609Z,56.1968
2023-05-02T09:05:04.514Z,61.6534
2023-05-02T09:06:08.432Z,67.1223
2023-05-02T09:07:12.328Z,71.5073
2023-05-02T09:08:16.213Z,74.2465
2023-05-02T09:09:20.127Z,64.1563
2023-05-02T09:10:24.039Z,56.1847
2023-05-02T09:11:27.991Z,60.9283
2023-05-02T09:12:32.087Z,66.4696
2023-05-02T09:13:35.996Z,71.0175
2023-05-02T09:14:39.875Z,74.4151
2023-05-02T09:15:43.781Z,66.7199
2023-05-02T09:16:47.793Z,55.1745
2023-05-02T09:17:51.982Z,58.2914
2023-05-02T09:18:55.918Z,64.1983
2023-05-02T09:19:59.936Z,69.1845
2023-05-02T09:21:03.849Z,73.1426
2023-05-02T09:22:07.768Z,70.0917
2023-05-02T09:23:11.682Z,56.9251
2023-05-02T09:24:15.614Z,57.5625
2023-05-02T09:25:19.753Z,63.4089
2023-05-02T09:26:23.675Z,68.5246
2023-05-02T09:27:27.532Z,72.6120
2023-05-02T09:28:31.430Z,72.3116
2023-05-02T09:29:35.349Z,58.8413
2023-05-02T09:30:39.296Z,55.9857
2023-05-02T09:31:55.616Z,61.7188
2023-05-02T09:32:47.748Z,67.3216
2023-05-02T09:33:51.640Z,71.4405
2023-05-02T09:34:55.552Z,73.4567
2023-05-02T09:35:59.438Z,59.4868
2023-05-02T09:37:03.363Z,51.7399
2023-05-02T09:38:07.231Z,56.9563
2023-05-02T09:39:11.132Z,63.1364
2023-05-02T09:40:15.065Z,68.3422
2023-05-02T09:41:18.945Z,72.3816
2023-05-02T09:42:22.858Z,67.1208
2023-05-02T09:43:26.755Z,56.8312
2023-05-02T09:44:30.752Z,60.2878
2023-05-02T09:45:35.362Z,65.8782
2023-05-02T09:46:39.404Z,70.4768
2023-05-02T09:47:43.304Z,74.1203
2023-05-02T09:48:47.162Z,68.8225
2023-05-02T09:49:51.069Z,54.6558
2023-05-02T09:50:54.989Z,53.7839
2023-05-02T09:51:58.890Z,60.0666
2023-05-02T09:53:02.928Z,65.7205
2023-05-02T09:54:06.925Z,70.3517
2023-05-02T09:55:10.789Z,72.2141
2023-05-02T09:56:14.710Z,60.5428
2023-05-02T09:57:18.643Z,56.4407
2023-05-02T09:58:22.535Z,61.8905
2023-05-02T09:59:26.425Z,67.2372
2023-05-02T10:00:30.347Z,71.5493
2023-05-02T10:01:34.269Z,73.8582
2023-05-02T10:02:38.258Z,62.7593
2023-05-02T10:03:42.187Z,53.8493
2023-05-02T10:04:46.144Z,58.4418
2023-05-02T10:05:50.071Z,64.2551
2023-05-02T10:06:53.978Z,69.1669
2023-05-02T10:07:57.893Z,72.9620
2023-05-02T10:09:01.817Z,66.9553
2023-05-02T10:10:05.733Z,56.6878
2023-05-02T10:11:09.633Z,60.3204
2023-05-02T10:12:13.564Z,65.7978
2023-05-02T10:13:17.475Z,70.3947
2023-05-02T10:14:21.491Z,73.9954
2023-05-02T10:15:25.374Z,68.6394
2023-05-02T10:16:29.290Z,57.6539
2023-05-02T10:17:33.550Z,61.0796
2023-05-02T10:18:37.458Z,66.6269
2023-05-02T10:19:41.370Z,71.0367
2023-05-02T10:20:45.257Z,74.5300
2023-05-02T10:21:49.178Z,69.5377
2023-05-02T10:22:53.100Z,60.1808
2023-05-02T10:23:56.993Z,63.9172
2023-05-02T10:25:01.201Z,68.8245
2023-05-02T10:26:05.365Z,72.8445
2023-05-02T10:27:09.295Z,75.7777
2023-05-02T10:28:13.194Z,68.0533
2023-05-02T10:29:17.145Z,55.8451
2023-05-02T10:30:21.039Z,58.6512
2023-05-02T10:31:24.960Z,64.3158
2023-05-02T10:32:29.219Z,69.2176
2023-05-02T10:33:33.125Z,73.1322
2023-05-02T10:34:36.988Z,69.9724
2023-05-02T10:35:40.959Z,56.0834
2023-05-02T10:36:44.826Z,55.5966
2023-05-02T10:37:48.896Z,61.6627
2023-05-02T10:38:52.792Z,67.0738
2023-05-02T10:39:56.693Z,71.3544
2023-05-02T10:41:00.576Z,72.2348
2023-05-02T10:42:04.488Z,60.4899
2023-05-02T10:43:08.414Z,59.6207
2023-05-02T10:44:12.323Z,64.9224
2023-05-02T10:45:16.234Z,69.6560
2023-05-02T10:46:20.189Z,73.3875
2023-05-02T10:47:24.152Z,73.3115
2023-05-02T10:48:28.104Z,59.4395
2023-05-02T10:49:32.029Z,53.0758
2023-05-02T10:50:36.138Z,58.5189
2023-05-02T10:51:40.044Z,64.3553
2023-05-02T10:52:43.951Z,69.2292
2023-05-02T10:53:47.893Z,72.7234
2023-05-02T10:54:51.810Z,64.7892
2023-05-02T10:55:55.717Z,55.2621
2023-05-02T10:56:59.625Z,59.4544
2023-05-02T10:58:03.529Z,65.0479
2023-05-02T10:59:07.435Z,69.7377
2023-05-02T11:00:07.632Z,73.3288
2023-05-02T11:01:11.587Z,68.3930
2023-05-02T11:02:15.708Z,56.1781
2023-05-02T11:03:19.642Z,58.4780
2023-05-02T11:04:23.532Z,64.1834
2023-05-02T11:05:27.399Z,69.0546
2023-05-02T11:06:31.323Z,72.9390
2023-05-02T11:07:35.234Z,70.2602
2023-05-02T11:08:39.167Z,57.4678
2023-05-02T11:09:43.056Z,58.5616
2023-05-02T11:10:46.986Z,64.1395
2023-05-02T11:11:50.899Z,68.9820
2023-05-02T11:12:54.797Z,72.8546
2023-05-02T11:13:58.698Z,71.4948
2023-05-02T11:15:02.790Z,57.6374
2023-05-02T11:16:06.920Z,55.7824
2023-05-02T11:17:10.786Z,61.6327
2023-05-02T11:18:14.811Z,66.8640
2023-05-02T11:19:18.678Z,71.1359
2023-05-02T11:20:22.549Z,72.6041
2023-05-02T11:21:26.442Z,60.3034
2023-05-02T11:22:30.350Z,54.3252
2023-05-02T11:23:34.219Z,59.7337
2023-05-02T11:24:38.142Z,65.3428
2023-05-02T11:25:42.098Z,69.9022
2023-05-02T11:26:45.978Z,73.0755
2023-05-02T11:27:49.917Z,64.2124
2023-05-02T11:28:53.809Z,56.4570
2023-05-02T11:29:57.723Z,61.1556
2023-05-02T11:31:01.614Z,66.4410
2023-05-02T11:32:05.554Z,70.7747
2023-05-02T11:33:09.470Z,73.9350
2023-05-02T11:34:13.333Z,65.4829
2023-05-02T11:35:17.228Z,54.0903
2023-05-02T11:36:21.147Z,57.3280
2023-05-02T11:37:25.049Z,63.1636
2023-05-02T11:38:28.992Z,68.1759
2023-05-02T11:39:32.890Z,72.1630
2023-05-02T11:40:36.799Z,68.8697
2023-05-02T11:41:40.724Z,55.8216
2023-05-02T11:42:44.632Z,56.5738
2023-05-02T11:43:48.542Z,62.4506
2023-05-02T11:44:52.461Z,67.5909
2023-05-02T11:45:56.463Z,71.6766
2023-05-02T11:47:00.385Z,71.2051
2023-05-02T11:48:04.349Z,58.1052
2023-05-02T11:49:09.334Z,56.7461
2023-05-02T11:50:08.754Z,62.4355
2023-05-02T11:51:12.680Z,67.4035
2023-05-02T11:52:16.607Z,71.5133
2023-05-02T11:53:20.512Z,72.8286
2023-05-02T11:54:24.434Z,60.4475
2023-05-02T11:55:28.580Z,55.3326
2023-05-02T11:56:32.467Z,60.7137
2023-05-02T11:57:36.437Z,66.0430
2023-05-02T11:58:40.347Z,70.5028
2023-05-02T11:59:44.259Z,73.2048
2023-05-02T12:00:48.179Z,63.1626
2023-05-02T12:01:52.086Z,54.9284
2023-05-02T12:02:56.186Z,59.6859
2023-05-02T12:04:00.140Z,65.3015
2023-05-02T12:05:04.331Z,69.8697
2023-05-02T12:06:08.516Z,73.2957
2023-05-02T12:07:12.523Z,65.7510
2023-05-02T12:08:16.397Z,56.2439
2023-05-02T12:09:20.299Z,60.3544
2023-05-02T12:10:24.190Z,65.7800
2023-05-02T12:11:28.060Z,70.2206
2023-05-02T12:12:31.975Z,73.6595
2023-05-02T12:13:35.896Z,67.1256
2023-05-02T12:14:39.802Z,54.5385
2023-05-02T12:15:43.737Z,56.7881
2023-05-02T12:16:47.833Z,62.6140
2023-05-02T12:17:51.834Z,67.6663
2023-05-02T12:18:55.715Z,71.6640
2023-05-02T12:19:59.876Z,69.9963
2023-05-02T12:21:03.768Z,55.9971
2023-05-02T12:22:07.673Z,53.5181
2023-05-02T12:23:11.577Z,59.4692
2023-05-02T12:24:15.484Z,64.9841
2023-05-02T12:25:19.384Z,69.5453
2023-05-02T12:26:23.317Z,71.8941
2023-05-02T12:27:27.238Z,60.7773
2023-05-02T12:28:31.145Z,53.6779
2023-05-02T12:29:35.050Z,58.8671
2023-05-02T12:30:38.969Z,64.5848
2023-05-02T12:31:42.877Z,69.2590
2023-05-02T12:32:46.761Z,72.7115
2023-05-02T12:33:50.762Z,66.3036
2023-05-02T12:34:54.903Z,64.4208
2023-05-02T12:35:58.811Z,68.8521
2023-05-02T12:37:02.747Z,72.5785
2023-05-02T12:38:06.705Z,75.6229
2023-05-02T12:39:10.600Z,75.1036
2023-05-02T12:40:14.666Z,60.6572
2023-05-02T12:41:18.570Z,51.6938
2023-05-02T12:42:22.460Z,56.5315
2023-05-02T12:43:26.583Z,62.6651
2023-05-02T12:44:30.436Z,67.7164
2023-05-02T12:45:34.358Z,71.7430
2023-05-02T12:46:38.253Z,67.0120
2023-05-02T12:47:42.199Z,56.0257
2023-05-02T12:48:46.838Z,59.1065